Alexandria, Indiana
Current Conditions -  °F | °C
As of 9:53 AM on Friday 19 Dec 2014 (Local Time) from KMIE Reporting Station
Overcast Overcast  
Wind Chill: 20°   Ceiling: 2300
Heat Index: 27°   Visibility: 7mi
Dew Point: 21°   Wind: 6mph
Humidity: 78%   Direction: 230°SW
Pressure: 30.29"   Gusts: NA
Location:  40.26°N, 85.67°W
Report Text: KMIE 191453Z 23005KT 7SM OVC023 M03/M06 A3029 RMK AO2 SLP266 T10281061 53011
Loading
Personal Weather Stations






























Interactive Weather Map New forecast layout! Learn more

10-Day Weather Forecast

Advertisements
Track Severe Weather on mobile